Desmet, ID (83824)

4:51 AM PDT on July 03, 2015 (GMT -0700)
Deep Creek Rd | | Change Station
CLOSE
Current Station
Personal Weather Station
Location: Potlatch, ID
Elevation: 2710 ft
Nearby Weather Stations

Elev 2710 ft 47.02 °N, 116.91 °W | Updated 8 minutes ago

Clear
Clear
55.2 °F
Feels Like 55.2 °F
N
0.0
Wind Variable Wind from NNE

Today
High -- | Low -- °F
--% Chance of Precip.
Yesterday
High -- | Low -- °F
Precip. -- in
4:57 AM 8:46 PM
Full, 97% visible
Pressure 29.89 in
Visibility 10.0 miles
Clouds Clear
Dew Point 47 °F
Humidity 73%
Rainfall 0.00 in
Snow Depth Not available.
UV 0 out of 12
Pollen 6.40 out of 12
Air Quality Not available.
Flu Activity Not available.
METAR KPUW 031053Z AUTO 00000KT 10SM CLR 14/09 A2994 RMK AO2 SLP120 T01390089

More Conditions Fewer Conditions

Pressure 29.89 in
Visibility 10.0 miles
Clouds Clear
Dew Point 47 °F
Humidity 73%
Rainfall 0.00 in
Snow Depth Not available.
UV 0 out of 12
Pollen 6.40 out of 12
Air Quality Not available.
Flu Activity Not available.
METAR KPUW 031053Z AUTO 00000KT 10SM CLR 14/09 A2994 RMK AO2 SLP120 T01390089

More Conditions Fewer Conditions

10-Day Weather Forecast

×

Almanac

Astronomy

Jul. 03, 2015 Rise Set
Actual Time
Civil Twilight
Nautical Twilight
Astronomical Twilight
Moon
Length of Visible Light
Length of Day
Tomorrow will be .
, % of the Moon is Illuminated

Today's Extremes

State Highs State Lows

Community

WunderPhotos

Upload Photos

1,834,656 photos uploaded!

WunderBlogs® & News

Nearby

Air Quality

  Air Quality AQ Index Pollutant
Not available.

Snow Depth

Station Depth Elevation

Earthquake Activity

City Distance Mag. Time & Date
Minimum magnitude displayed is 2.5.

Coastal Water Temperatures

Place Temperature

Stations

Nearby Weather Stations

Station Location Temp. Windchill Dew Point Humidity Wind Precip. Elev Updated Type